Peterboro, New York
Current Conditions -  °F | °C
As of 11:53 AM on Sunday 23 Nov 2014 (Local Time) from KRME Reporting Station
Overcast Overcast  
Wind Chill: 46°   Ceiling: 6000
Heat Index: 49°   Visibility: 10mi
Dew Point: 41°   Wind: 7mph
Humidity: 74%   Direction: 100°E
Pressure: 30.08"   Gusts: NA
Location:  42.97°N, 75.69°W
Report Text: KRME 231653Z 10006KT 10SM OVC060 09/05 A3008 RMK AO2 SLP189 T00940050
Loading
Personal Weather Stations






























Interactive Weather Map New forecast layout! Learn more

10-Day Weather Forecast

Advertisements
Track Severe Weather on mobile